Emerald, Wisconsin
Current Conditions -  °F | °C
As of 8:55 AM on Sunday 21 Dec 2014 (Local Time) from KRNH Reporting Station
Haze Haze  
Wind Chill: 22°   Ceiling: 400
Heat Index: 32°   Visibility: 1.7mi
Dew Point: 32°   Wind: 14mph
Humidity: 100%   Direction: 160°SSE
Pressure: 29.9"   Gusts: 20mph
Location:  45.08°N, 92.26°W
Report Text: KRNH 211455Z AUTO 16012G17KT 1 3/4SM BR OVC004 00/00 A2990 RMK AO2 T00020002
Loading
Personal Weather Stations






























Interactive Weather Map New forecast layout! Learn more

10-Day Weather Forecast

Advertisements
Track Severe Weather on mobile